This is the latest recevied weather packets stored in our database for station/object DG7AA-13. If no packets are shown the sender has not sent any weather packets the latest 1 day(s).
| Time | Temp. | Humidity | Pressure | Rain* | Wind** | Luminosity | Snow |
|---|---|---|---|---|---|---|---|
| 1777998325 | 15.56° C | 86% | - | 0 mm | 0.89 m/s, 346° | - | - |
| 1777997730 | 15.56° C | 85% | - | 0 mm | 1.34 m/s, 338° | - | - |
| 1777997126 | 15.56° C | 85% | - | 0 mm | 0.89 m/s, 342° | - | - |
| 1777996522 | 15.56° C | 85% | - | 0 mm | 1.34 m/s, 343° | - | - |
| 1777995926 | 16.11° C | 85% | - | 0 mm | 0.89 m/s, 343° | - | - |
| 1777995334 | 16.11° C | 85% | - | 0 mm | 0.89 m/s, 338° | - | - |
| 1777994723 | 16.11° C | 83% | - | 0 mm | 0.89 m/s, 339° | - | - |
| 1777994131 | 16.11° C | 83% | - | 0 mm | 1.34 m/s, 342° | - | - |
| 1777993521 | 16.11° C | 82% | - | 0 mm | 1.79 m/s, 347° | - | - |
| 1777992930 | 16.67° C | 82% | - | 0 mm | 1.34 m/s, 342° | - | - |
| 1777992324 | 16.67° C | 81% | - | 0 mm | 1.79 m/s, 341° | - | - |
| 1777991734 | 17.22° C | 81% | - | 0 mm | 2.24 m/s, 347° | - | - |
| 1777991125 | 17.22° C | 80% | - | 0 mm | 1.79 m/s, 338° | - | - |
| 1777990531 | 17.78° C | 81% | - | 0 mm | 1.79 m/s, 343° | - | - |
| 1777989926 | 17.22° C | 81% | - | 0 mm | 1.79 m/s, 335° | - | - |
| 1777989334 | 17.22° C | 82% | - | 0 mm | 1.79 m/s, 347° | - | - |
| 1777988726 | 17.22° C | 82% | - | 0 mm | 1.34 m/s, 343° | - | - |
| 1777988131 | 17.22° C | 81% | - | 0 mm | 1.34 m/s, 343° | - | - |
| 1777987525 | 17.78° C | 79% | - | 0 mm | 1.79 m/s, 337° | - | - |
| 1777986922 | 17.78° C | 80% | - | 0 mm | 1.34 m/s, 337° | - | - |
| 1777986322 | 17.78° C | 78% | - | 0 mm | 1.79 m/s, 336° | - | - |
| 1777985726 | 19.44° C | 75% | - | 0 mm | 1.34 m/s, 335° | - | - |
| 1777985126 | 21.11° C | 62% | - | 0 mm | 0.45 m/s, 335° | - | - |
| 1777984533 | 20.56° C | 65% | - | 0 mm | 0.45 m/s, 314° | - | - |
| 1777983922 | 19.44° C | 68% | - | 0 mm | 0.89 m/s, 332° | - | - |
* Rain latest hour (hover to see other rain measurements)
** Current wind speed in m/s (hover to see current wind gust speed)